createdAt,value
2022-12-14T00:02:09.458Z,88.18
2022-12-14T00:05:21.871Z,88.37
2022-12-14T00:08:09.127Z,88.53
2022-12-14T00:10:58.528Z,88.69
2022-12-14T00:13:45.043Z,88.61
2022-12-14T00:17:56.641Z,88.65
2022-12-14T00:21:58.877Z,88.84
2022-12-14T00:24:45.639Z,88.95
2022-12-14T00:27:32.268Z,88.83
2022-12-14T00:30:21.990Z,88.99
2022-12-14T00:33:08.821Z,89.09
2022-12-14T00:35:55.182Z,88.95
2022-12-14T00:38:42.743Z,88.88
2022-12-14T00:41:29.307Z,88.92
2022-12-14T00:44:15.963Z,89.02
2022-12-14T00:47:02.796Z,88.94
2022-12-14T00:49:49.960Z,88.96
2022-12-14T00:52:38.769Z,89.06
2022-12-14T00:55:25.474Z,89.17
2022-12-14T00:58:15.706Z,89.24
2022-12-14T01:01:05.803Z,89.23
2022-12-14T01:04:12.283Z,89.25
2022-12-14T01:06:59.210Z,89.22
2022-12-14T01:09:46.173Z,89.24
2022-12-14T01:12:32.673Z,89.20
2022-12-14T01:15:19.287Z,89.15
2022-12-14T01:18:07.187Z,89.14
2022-12-14T01:21:08.514Z,89.18
2022-12-14T01:23:59.337Z,89.11
2022-12-14T01:26:45.826Z,89.05
2022-12-14T01:31:23.826Z,89.06
2022-12-14T01:34:11.160Z,89.09
2022-12-14T01:36:57.738Z,89.02
2022-12-14T01:39:45.918Z,89.00
2022-12-14T01:42:35.899Z,89.03
2022-12-14T01:45:22.840Z,89.10
2022-12-14T01:48:16.862Z,89.30
2022-12-14T01:52:28.825Z,89.32
2022-12-14T01:55:21.896Z,89.32
2022-12-14T01:58:19.883Z,89.16
2022-12-14T02:01:06.233Z,89.14
2022-12-14T02:03:53.937Z,89.14
2022-12-14T02:09:35.405Z,89.17
2022-12-14T02:12:55.354Z,89.26
2022-12-14T02:16:55.063Z,89.15
2022-12-14T02:21:18.597Z,89.13
2022-12-14T02:25:36.136Z,89.02
2022-12-14T02:28:36.560Z,89.03
2022-12-14T02:31:37.783Z,88.91
2022-12-14T02:34:46.356Z,88.84
2022-12-14T02:38:07.124Z,88.90
2022-12-14T02:42:15.343Z,89.17
2022-12-14T02:46:21.554Z,89.22
2022-12-14T02:50:33.970Z,89.27
2022-12-14T02:54:36.862Z,89.19
2022-12-14T02:58:43.160Z,89.01
2022-12-14T03:02:42.060Z,89.03
2022-12-14T03:05:28.794Z,89.02
2022-12-14T03:08:16.801Z,88.98
2022-12-14T03:11:07.303Z,88.99
2022-12-14T03:14:00.960Z,89.24
2022-12-14T03:17:00.829Z,89.30
2022-12-14T03:21:00.844Z,89.35
2022-12-14T03:23:50.797Z,89.36
2022-12-14T03:26:49.006Z,89.26
2022-12-14T03:29:46.126Z,89.23
2022-12-14T03:32:35.935Z,89.22
2022-12-14T03:36:24.470Z,89.25
2022-12-14T03:40:18.749Z,89.25
2022-12-14T03:44:31.398Z,89.21
2022-12-14T03:48:28.813Z,89.30
2022-12-14T03:51:31.543Z,89.32
2022-12-14T03:54:33.849Z,89.16
2022-12-14T03:57:42.808Z,89.19
2022-12-14T04:02:53.719Z,89.01
2022-12-14T04:06:20.175Z,88.85
2022-12-14T04:09:28.794Z,88.76
2022-12-14T04:12:38.298Z,88.71
2022-12-14T04:15:50.159Z,88.71
2022-12-14T04:19:01.904Z,88.88
2022-12-14T04:22:26.109Z,88.92
2022-12-14T04:27:53.446Z,88.84
2022-12-14T04:32:29.872Z,88.99
2022-12-14T04:35:38.127Z,89.02
2022-12-14T04:40:05.653Z,89.05
2022-12-14T04:43:14.862Z,88.98
2022-12-14T04:47:14.848Z,88.85
2022-12-14T04:51:12.627Z,88.81
2022-12-14T04:55:36.636Z,88.82
2022-12-14T04:58:47.029Z,89.08
2022-12-14T05:02:57.032Z,89.76
2022-12-14T05:07:05.371Z,89.81
2022-12-14T05:11:50.058Z,89.94
2022-12-14T05:15:39.197Z,90.08
2022-12-14T05:18:26.207Z,90.02
2022-12-14T05:21:35.176Z,89.98
2022-12-14T05:24:21.452Z,89.85
2022-12-14T05:27:08.099Z,89.90
2022-12-14T05:29:54.331Z,90.09
2022-12-14T05:32:40.947Z,90.03
2022-12-14T05:35:46.228Z,90.05
2022-12-14T05:38:32.507Z,89.99
2022-12-14T05:41:26.291Z,90.15
2022-12-14T05:55:51.733Z,89.91
2022-12-14T05:58:39.219Z,89.97
2022-12-14T06:01:25.555Z,89.86
2022-12-14T06:04:13.669Z,89.79
2022-12-14T06:07:34.235Z,89.88
2022-12-14T06:10:19.344Z,90.23
2022-12-14T06:13:30.987Z,90.16
2022-12-14T06:16:19.487Z,90.33
2022-12-14T06:19:04.809Z,90.57
2022-12-14T06:22:22.601Z,90.78
2022-12-14T06:37:14.746Z,90.92
2022-12-14T06:40:10.173Z,91.08
2022-12-14T06:44:14.294Z,91.30
2022-12-14T06:47:43.636Z,91.36
2022-12-14T06:52:05.121Z,91.45
2022-12-14T06:56:17.565Z,91.46
2022-12-14T07:10:38.285Z,90.42
2022-12-14T07:24:01.424Z,89.27
2022-12-14T07:53:22.408Z,85.81
2022-12-14T07:56:34.707Z,85.74
2022-12-14T07:59:57.265Z,85.52
2022-12-14T08:03:58.700Z,85.56
2022-12-14T08:07:58.087Z,85.56
2022-12-14T08:11:30.078Z,85.44
2022-12-14T08:25:57.083Z,84.27
2022-12-14T08:28:43.816Z,83.42
2022-12-14T08:31:30.477Z,83.56
2022-12-14T08:34:22.893Z,83.18
2022-12-14T08:37:09.759Z,82.75
2022-12-14T08:39:56.288Z,82.08
2022-12-14T08:42:43.045Z,81.55
2022-12-14T08:45:29.257Z,81.40
2022-12-14T08:48:15.546Z,81.50
2022-12-14T08:51:07.420Z,80.22
2022-12-14T08:53:54.875Z,80.05
2022-12-14T08:56:41.240Z,79.82
2022-12-14T08:59:59.771Z,78.77
2022-12-14T09:02:33.936Z,79.18
2022-12-14T09:05:20.448Z,77.73
2022-12-14T09:08:06.766Z,77.94
2022-12-14T09:10:53.198Z,78.55
2022-12-14T09:13:40.631Z,78.81
2022-12-14T09:16:27.137Z,78.15
2022-12-14T09:19:14.868Z,78.50
2022-12-14T09:22:01.533Z,78.30
2022-12-14T09:24:50.048Z,78.12
2022-12-14T09:27:36.679Z,77.49
2022-12-14T09:30:26.777Z,77.46
2022-12-14T09:33:13.805Z,77.92
2022-12-14T09:36:05.701Z,77.01
2022-12-14T09:38:55.291Z,75.94
2022-12-14T09:43:06.173Z,75.80
2022-12-14T09:45:58.452Z,75.63
2022-12-14T09:48:44.876Z,74.67
2022-12-14T09:51:37.010Z,74.64
2022-12-14T09:54:28.557Z,73.92
2022-12-14T09:57:39.562Z,72.32
2022-12-14T10:00:31.711Z,70.99
2022-12-14T10:03:21.271Z,71.76
2022-12-14T10:06:39.862Z,70.73
2022-12-14T10:09:38.330Z,70.97
2022-12-14T10:12:44.046Z,70.45
2022-12-14T10:16:00.936Z,70.18
2022-12-14T10:19:26.615Z,70.67
2022-12-14T10:22:28.161Z,69.88
2022-12-14T10:25:14.532Z,70.60
2022-12-14T10:28:11.523Z,70.03
2022-12-14T10:31:01.954Z,68.83
2022-12-14T10:33:48.464Z,67.84
2022-12-14T10:36:43.981Z,67.73
2022-12-14T10:39:49.351Z,66.21
2022-12-14T10:42:50.938Z,65.92
2022-12-14T10:45:49.276Z,63.91
2022-12-14T10:48:47.719Z,62.81
2022-12-14T10:51:39.223Z,63.69
2022-12-14T10:54:25.825Z,63.59
2022-12-14T10:57:18.469Z,65.07
2022-12-14T11:00:18.521Z,64.11
2022-12-14T11:03:15.337Z,62.88
2022-12-14T11:06:07.687Z,62.43
2022-12-14T11:08:57.969Z,61.44
2022-12-14T11:11:45.733Z,60.33
2022-12-14T11:14:32.682Z,61.13
2022-12-14T11:17:40.262Z,60.97
2022-12-14T11:20:26.737Z,61.41
2022-12-14T11:24:22.065Z,63.41
2022-12-14T11:27:11.199Z,62.56
2022-12-14T11:29:57.434Z,62.43
2022-12-14T11:32:47.941Z,62.72
2022-12-14T11:35:34.898Z,62.71
2022-12-14T11:38:23.771Z,61.40
2022-12-14T11:41:21.302Z,62.04
2022-12-14T11:44:16.859Z,62.66
2022-12-14T11:47:18.705Z,64.11
2022-12-14T11:50:51.091Z,63.86
2022-12-14T11:54:02.605Z,63.80
2022-12-14T11:56:54.599Z,63.08
2022-12-14T12:00:01.520Z,62.27
2022-12-14T12:02:55.989Z,61.35
2022-12-14T12:05:44.394Z,62.09
2022-12-14T12:08:34.896Z,61.30
2022-12-14T12:11:25.582Z,61.52
2022-12-14T12:14:36.054Z,60.04
2022-12-14T12:17:41.372Z,60.63
2022-12-14T12:24:10.693Z,62.00
2022-12-14T12:27:00.445Z,61.79
2022-12-14T12:30:02.225Z,61.97
2022-12-14T12:32:52.837Z,62.05
2022-12-14T12:35:49.741Z,61.37
2022-12-14T12:39:37.705Z,62.01
2022-12-14T12:43:14.438Z,61.24
2022-12-14T12:46:23.612Z,61.87
2022-12-14T12:49:43.839Z,62.12
2022-12-14T12:53:46.075Z,62.03
2022-12-14T13:00:52.793Z,60.46
2022-12-14T13:04:27.880Z,60.53
2022-12-14T13:07:51.758Z,62.35
2022-12-14T13:14:41.619Z,64.26
2022-12-14T13:18:07.519Z,64.78
2022-12-14T13:21:27.703Z,66.85
2022-12-14T13:24:38.974Z,69.63
2022-12-14T13:28:42.073Z,72.05
2022-12-14T13:32:08.872Z,74.03
2022-12-14T13:35:10.916Z,75.47
2022-12-14T13:38:19.207Z,75.88
2022-12-14T13:41:25.765Z,76.64
2022-12-14T13:44:45.059Z,77.33
2022-12-14T13:47:43.871Z,77.60
2022-12-14T13:50:36.746Z,77.57
2022-12-14T13:53:50.197Z,78.10
2022-12-14T13:56:43.154Z,78.54
2022-12-14T13:59:40.835Z,78.74
2022-12-14T14:02:30.061Z,79.12
2022-12-14T14:05:19.379Z,79.21
2022-12-14T14:08:36.074Z,79.60
2022-12-14T14:11:36.912Z,80.34
2022-12-14T14:14:33.369Z,80.64
2022-12-14T14:17:25.650Z,80.77
2022-12-14T14:20:38.721Z,80.65
2022-12-14T14:23:30.467Z,81.08
2022-12-14T14:26:22.491Z,81.49
2022-12-14T14:29:24.543Z,81.57
2022-12-14T14:32:40.246Z,81.70
2022-12-14T14:35:35.793Z,81.99
2022-12-14T14:38:32.227Z,82.44
2022-12-14T14:41:25.917Z,82.61
2022-12-14T14:44:42.959Z,82.51
2022-12-14T14:47:35.952Z,82.50
2022-12-14T14:50:35.384Z,82.47
2022-12-14T14:53:35.582Z,82.59
2022-12-14T14:56:37.365Z,82.45
2022-12-14T14:59:28.829Z,82.62
2022-12-14T15:02:29.498Z,82.68
2022-12-14T15:08:42.824Z,83.13
2022-12-14T15:11:40.803Z,83.09
2022-12-14T15:14:35.572Z,83.05
2022-12-14T15:17:24.433Z,83.27
2022-12-14T15:20:21.643Z,83.37
2022-12-14T15:23:14.461Z,83.52
2022-12-14T15:26:02.669Z,83.56
2022-12-14T15:28:51.945Z,83.64
2022-12-14T15:31:42.221Z,83.67
2022-12-14T15:34:29.059Z,83.69
2022-12-14T15:37:27.815Z,83.73
2022-12-14T15:44:14.051Z,84.00
2022-12-14T15:48:20.702Z,83.99
2022-12-14T15:52:00.990Z,84.04
2022-12-14T15:54:47.203Z,84.14
2022-12-14T15:57:34.387Z,84.23
2022-12-14T16:00:21.137Z,84.24
2022-12-14T16:03:28.118Z,84.23
2022-12-14T16:06:15.496Z,84.44
2022-12-14T16:09:28.418Z,84.25
2022-12-14T16:12:26.212Z,84.21
2022-12-14T16:15:24.083Z,84.12
2022-12-14T16:18:13.735Z,84.21
2022-12-14T16:21:02.313Z,84.20
2022-12-14T16:23:50.184Z,84.13
2022-12-14T16:26:39.837Z,84.06
2022-12-14T16:29:30.260Z,83.95
2022-12-14T16:32:17.175Z,84.04
2022-12-14T16:35:04.142Z,84.06
2022-12-14T16:37:53.679Z,83.99
2022-12-14T16:41:04.020Z,84.03
2022-12-14T16:44:00.520Z,83.96
2022-12-14T16:47:03.157Z,83.96
2022-12-14T16:49:59.605Z,83.76
2022-12-14T16:52:46.001Z,83.81
2022-12-14T16:55:33.528Z,83.87
2022-12-14T16:58:19.905Z,83.90
2022-12-14T17:01:09.275Z,83.93
2022-12-14T17:04:15.873Z,84.00
2022-12-14T17:07:05.569Z,83.94
2022-12-14T17:09:56.284Z,84.07
2022-12-14T17:12:44.002Z,84.11
2022-12-14T17:15:34.195Z,84.17
2022-12-14T17:18:27.901Z,84.04
2022-12-14T17:21:38.533Z,84.05
2022-12-14T17:30:21.933Z,84.07
2022-12-14T17:33:09.478Z,83.95
2022-12-14T17:35:56.308Z,83.85
2022-12-14T17:38:43.459Z,83.88
2022-12-14T17:41:30.326Z,83.84
2022-12-14T17:44:20.999Z,83.80
2022-12-14T17:47:11.498Z,83.88
2022-12-14T17:49:57.977Z,83.78
2022-12-14T17:52:45.061Z,83.82
2022-12-14T17:55:32.591Z,83.98
2022-12-14T18:01:30.365Z,83.89
2022-12-14T18:04:16.927Z,83.71
2022-12-14T18:07:03.326Z,83.56
2022-12-14T18:09:53.049Z,83.31
2022-12-14T18:12:39.376Z,83.49
2022-12-14T18:15:29.504Z,83.49
2022-12-14T18:18:22.398Z,83.31
2022-12-14T18:21:28.218Z,83.48
2022-12-14T18:24:20.162Z,83.38
2022-12-14T18:27:09.981Z,83.34
2022-12-14T18:29:58.290Z,83.42
2022-12-14T18:32:45.409Z,83.42
2022-12-14T18:35:33.943Z,83.42
2022-12-14T18:38:20.255Z,83.43
2022-12-14T18:41:06.846Z,83.23
2022-12-14T18:44:27.311Z,83.12
2022-12-14T18:47:40.234Z,82.90
2022-12-14T18:50:18.713Z,82.76
2022-12-14T18:53:03.972Z,82.72
2022-12-14T18:55:59.894Z,82.74
2022-12-14T18:58:45.781Z,82.61
2022-12-14T19:01:31.066Z,82.45
2022-12-14T19:04:17.010Z,82.26
2022-12-14T19:07:02.103Z,82.39
2022-12-14T19:09:47.207Z,82.31
2022-12-14T19:12:32.461Z,82.31
2022-12-14T19:15:20.809Z,82.27
2022-12-14T19:18:11.999Z,82.36
2022-12-14T19:20:57.190Z,82.45
2022-12-14T19:23:44.335Z,82.69
2022-12-14T19:26:30.219Z,82.61
2022-12-14T19:29:15.532Z,82.54
2022-12-14T19:32:05.488Z,82.73
2022-12-14T19:34:51.644Z,82.68
2022-12-14T19:37:36.656Z,82.60
2022-12-14T19:40:22.819Z,82.53
2022-12-14T19:43:08.241Z,82.51
2022-12-14T19:51:54.990Z,82.58
2022-12-14T19:54:41.499Z,82.62
2022-12-14T19:57:28.951Z,82.55
2022-12-14T20:00:15.962Z,82.50
2022-12-14T20:03:02.199Z,82.10
2022-12-14T20:05:59.429Z,82.10
2022-12-14T20:08:45.968Z,82.41
2022-12-14T20:11:38.641Z,82.75
2022-12-14T20:14:25.301Z,83.10
2022-12-14T20:17:13.600Z,83.64
2022-12-14T20:20:03.771Z,84.16
2022-12-14T20:22:50.181Z,84.71
2022-12-14T20:25:37.124Z,85.07
2022-12-14T20:32:40.697Z,85.89
2022-12-14T20:35:27.643Z,85.87
2022-12-14T20:38:14.800Z,85.98
2022-12-14T20:41:09.650Z,86.10
2022-12-14T20:43:56.208Z,86.18
2022-12-14T20:46:45.153Z,85.99
2022-12-14T20:49:33.028Z,85.97
2022-12-14T20:52:19.463Z,85.71
2022-12-14T20:59:27.672Z,86.11
2022-12-14T21:02:20.620Z,86.36
2022-12-14T21:05:07.920Z,86.41
2022-12-14T21:07:55.865Z,86.61
2022-12-14T21:10:50.633Z,86.57
2022-12-14T21:13:37.016Z,86.80
2022-12-14T21:16:23.564Z,86.75
2022-12-14T21:19:12.285Z,86.80
2022-12-14T21:21:59.130Z,86.82
2022-12-14T21:27:52.112Z,86.82
2022-12-14T21:30:38.835Z,86.81
2022-12-14T21:33:25.316Z,86.79
2022-12-14T21:36:12.668Z,86.68
2022-12-14T21:38:59.026Z,86.65
2022-12-14T21:42:04.996Z,86.63
2022-12-14T21:44:55.484Z,86.69
2022-12-14T21:47:41.804Z,86.59
2022-12-14T21:50:28.351Z,86.65
2022-12-14T21:53:14.574Z,86.64
2022-12-14T21:56:21.035Z,86.41
2022-12-14T21:59:07.514Z,86.36
2022-12-14T22:01:55.962Z,86.39
2022-12-14T22:04:48.936Z,86.45
2022-12-14T22:07:35.206Z,86.54
2022-12-14T22:10:25.023Z,86.65
2022-12-14T22:13:11.972Z,86.71
2022-12-14T22:16:00.724Z,86.77
2022-12-14T22:18:47.712Z,86.82
2022-12-14T22:21:37.925Z,86.83
2022-12-14T22:24:24.959Z,86.86
2022-12-14T22:27:12.862Z,86.84
2022-12-14T22:29:59.217Z,86.90
2022-12-14T22:32:46.004Z,86.91
2022-12-14T22:35:32.631Z,86.96
2022-12-14T22:38:19.096Z,87.02
2022-12-14T22:41:06.282Z,87.12
2022-12-14T22:43:57.677Z,87.13
2022-12-14T22:46:44.266Z,87.12
2022-12-14T22:49:30.685Z,87.22
2022-12-14T22:52:21.381Z,87.15
2022-12-14T22:55:13.144Z,87.20
2022-12-14T22:57:59.750Z,87.23
2022-12-14T23:00:49.113Z,87.24
2022-12-14T23:03:36.381Z,87.32
2022-12-14T23:06:23.361Z,87.32
2022-12-14T23:09:28.432Z,87.43
2022-12-14T23:12:33.296Z,87.47
2022-12-14T23:15:38.358Z,87.48
2022-12-14T23:18:43.975Z,87.49
2022-12-14T23:21:48.898Z,87.50
2022-12-14T23:24:54.248Z,87.54
2022-12-14T23:27:59.702Z,87.50
2022-12-14T23:31:04.993Z,87.50
2022-12-14T23:34:10.725Z,87.46
2022-12-14T23:37:20.191Z,87.45
2022-12-14T23:40:26.842Z,87.47
2022-12-14T23:43:35.567Z,87.42
2022-12-14T23:46:41.985Z,87.40
2022-12-14T23:49:47.816Z,87.43
2022-12-14T23:52:53.100Z,87.44
2022-12-14T23:55:57.864Z,87.44
2022-12-14T23:59:02.960Z,87.39
